Time;durP1;ratioP1;P1;durP2;ratioP2;P2;SDS_P1;SDS_P2;PMS_P1;PMS_P2;Temp;Humidity;BMP_temperature;BMP_pressure;BME280_temperature;BME280_humidity;BME280_pressure;Samples;Min_cycle;Max_cycle;Signal;HPM_P1;HPM_P2
2023/07/31 00:01:19;;;;;;;6.15;2.28;;;;;;;;;;6354253;22;20049;-89
2023/07/31 00:03:47;;;;;;;6.65;1.90;;;;;;;;;;6380921;22;20019;-89
2023/07/31 00:06:14;;;;;;;9.45;2.13;;;;;;;;;;6356812;22;20090;-89
2023/07/31 00:08:41;;;;;;;6.22;2.10;;;;;;;;;;6380309;22;20026;-88
2023/07/31 00:11:09;;;;;;;6.72;2.20;;;;;;;;;;6380960;22;20033;-89
2023/07/31 00:13:36;;;;;;;6.07;2.30;;;;;;;;;;6351938;22;20019;-88
2023/07/31 00:16:06;;;;;;;9.98;2.17;;;;;;;;;;6379497;22;20040;-89
2023/07/31 00:18:42;;;;;;;5.95;1.92;;;;;;;;;;6356466;22;20310;-89
2023/07/31 00:21:18;;;;;;;11.55;2.47;;;;;;;;;;6379616;22;20070;-89
2023/07/31 00:23:45;;;;;;;3.65;1.60;;;;;;;;;;6378213;22;20022;-89
2023/07/31 00:28:50;;;;;;;7.00;2.45;;;;;;;;;;6345214;22;20025;-88
2023/07/31 00:31:17;;;;;;;7.40;2.20;;;;;;;;;;6347049;22;20023;-88
2023/07/31 00:33:44;;;;;;;5.35;2.25;;;;;;;;;;6319782;22;20018;-88
2023/07/31 00:36:17;;;;;;;4.80;1.95;;;;;;;;;;6353562;22;20086;-89
2023/07/31 00:38:44;;;;;;;7.25;1.88;;;;;;;;;;6321250;22;20026;-88
2023/07/31 00:41:11;;;;;;;5.47;1.73;;;;;;;;;;6321443;22;20321;-88
2023/07/31 00:43:38;;;;;;;6.53;1.67;;;;;;;;;;6322936;22;20042;-89
2023/07/31 00:46:08;;;;;;;11.73;2.30;;;;;;;;;;6321805;22;20026;-88
2023/07/31 00:48:37;;;;;;;3.95;1.73;;;;;;;;;;6349283;22;20030;-88
2023/07/31 00:51:05;;;;;;;4.05;1.92;;;;;;;;;;6323020;22;20023;-88
2023/07/31 00:53:32;;;;;;;7.93;2.58;;;;;;;;;;6350781;22;20065;-88
2023/07/31 00:55:59;;;;;;;6.90;1.70;;;;;;;;;;6328556;22;20023;-88
2023/07/31 00:58:26;;;;;;;7.68;2.40;;;;;;;;;;6322639;22;20041;-88
2023/07/31 01:00:53;;;;;;;3.10;1.65;;;;;;;;;;6322798;22;20083;-88
2023/07/31 01:03:20;;;;;;;12.40;2.40;;;;;;;;;;6321710;22;20023;-89
2023/07/31 01:06:02;;;;;;;4.95;2.17;;;;;;;;;;6320405;22;20023;-88
2023/07/31 01:08:38;;;;;;;5.72;1.83;;;;;;;;;;6346438;22;20065;-88
2023/07/31 01:11:09;;;;;;;5.85;1.88;;;;;;;;;;6322365;22;20033;-88
2023/07/31 01:13:36;;;;;;;5.32;1.95;;;;;;;;;;6348516;22;20018;-88
2023/07/31 01:16:04;;;;;;;5.55;2.50;;;;;;;;;;6321365;22;20023;-88
2023/07/31 01:18:31;;;;;;;3.08;1.58;;;;;;;;;;6347344;22;20532;-89
2023/07/31 01:21:13;;;;;;;6.20;2.17;;;;;;;;;;6346763;22;20030;-88
2023/07/31 01:23:40;;;;;;;8.32;2.20;;;;;;;;;;6347767;22;20037;-88
2023/07/31 01:26:07;;;;;;;7.05;2.47;;;;;;;;;;6348780;22;20027;-89
2023/07/31 01:28:44;;;;;;;6.82;2.05;;;;;;;;;;6325270;22;20035;-88
2023/07/31 01:31:22;;;;;;;3.90;2.08;;;;;;;;;;6321499;22;20023;-88
2023/07/31 01:33:52;;;;;;;5.10;1.92;;;;;;;;;;6348945;22;20027;-88
2023/07/31 01:36:26;;;;;;;3.58;2.00;;;;;;;;;;6348942;22;20377;-88
2023/07/31 01:38:57;;;;;;;3.83;2.05;;;;;;;;;;6349935;22;20025;-89
2023/07/31 01:41:24;;;;;;;4.70;1.50;;;;;;;;;;6323969;22;20026;-89
2023/07/31 01:43:51;;;;;;;3.92;1.80;;;;;;;;;;6320120;22;20404;-88
2023/07/31 01:46:21;;;;;;;5.55;1.83;;;;;;;;;;6321917;22;20354;-88
2023/07/31 01:48:48;;;;;;;4.15;2.10;;;;;;;;;;6349415;22;20029;-88
2023/07/31 01:51:16;;;;;;;6.85;2.10;;;;;;;;;;6348886;22;20022;-88
2023/07/31 01:53:51;;;;;;;6.15;2.22;;;;;;;;;;6348653;22;20023;-88
2023/07/31 01:56:26;;;;;;;6.28;2.13;;;;;;;;;;6348212;22;20115;-89
2023/07/31 01:58:53;;;;;;;2.50;1.67;;;;;;;;;;6348522;22;20025;-88
2023/07/31 02:01:20;;;;;;;4.40;2.42;;;;;;;;;;6329692;22;20177;-89
2023/07/31 02:03:54;;;;;;;3.85;2.28;;;;;;;;;;6329465;22;20097;-89
2023/07/31 02:06:22;;;;;;;5.07;2.20;;;;;;;;;;6347135;22;20023;-89
2023/07/31 02:08:49;;;;;;;4.57;1.83;;;;;;;;;;6347334;22;20050;-89
2023/07/31 02:11:16;;;;;;;3.08;2.30;;;;;;;;;;6320438;22;20031;-89
2023/07/31 02:13:45;;;;;;;4.72;2.33;;;;;;;;;;6349317;22;20030;-89
2023/07/31 02:16:12;;;;;;;4.97;2.08;;;;;;;;;;6356136;22;20026;-88
2023/07/31 02:18:39;;;;;;;4.97;2.53;;;;;;;;;;6320561;22;20018;-88
2023/07/31 02:21:09;;;;;;;3.22;1.95;;;;;;;;;;6320036;22;20022;-89
2023/07/31 02:23:36;;;;;;;5.20;2.20;;;;;;;;;;6319763;22;20259;-89
2023/07/31 02:26:03;;;;;;;9.50;3.05;;;;;;;;;;6353344;22;20011;-89
2023/07/31 02:28:32;;;;;;;4.38;2.03;;;;;;;;;;6359508;22;20014;-89
2023/07/31 02:30:59;;;;;;;4.47;2.33;;;;;;;;;;6360241;22;20011;-87
2023/07/31 02:33:26;;;;;;;3.65;2.10;;;;;;;;;;6334615;22;20052;-89
2023/07/31 02:35:55;;;;;;;3.58;2.20;;;;;;;;;;6334734;22;20050;-88
2023/07/31 02:38:22;;;;;;;2.00;1.75;;;;;;;;;;6361451;22;20022;-89
2023/07/31 02:40:49;;;;;;;3.25;2.25;;;;;;;;;;6335354;22;20026;-89
2023/07/31 02:43:18;;;;;;;5.85;2.30;;;;;;;;;;6361530;22;20025;-89
2023/07/31 02:45:52;;;;;;;4.45;3.00;;;;;;;;;;6330505;22;20027;-88
2023/07/31 02:48:19;;;;;;;6.00;3.55;;;;;;;;;;6355363;22;20029;-88
2023/07/31 02:50:47;;;;;;;7.82;3.42;;;;;;;;;;6323754;22;20023;-88
2023/07/31 02:53:13;;;;;;;5.97;3.15;;;;;;;;;;6326789;22;20014;-88
2023/07/31 02:55:40;;;;;;;5.40;2.85;;;;;;;;;;6322730;22;20019;-88
2023/07/31 02:58:13;;;;;;;5.70;2.95;;;;;;;;;;6346124;22;20501;-87
2023/07/31 03:07:16;;;;;;;3.55;2.58;;;;;;;;;;6344474;22;20023;-88
2023/07/31 03:09:43;;;;;;;6.55;3.53;;;;;;;;;;6345446;22;20079;-88
2023/07/31 03:12:10;;;;;;;4.15;3.10;;;;;;;;;;6318149;22;20026;-88
2023/07/31 03:14:37;;;;;;;10.00;2.90;;;;;;;;;;6318618;22;20030;-88
2023/07/31 03:17:04;;;;;;;5.93;3.45;;;;;;;;;;6320436;22;20033;-87
2023/07/31 03:19:45;;;;;;;6.80;4.22;;;;;;;;;;6339373;22;20065;-87
2023/07/31 03:22:25;;;;;;;4.78;2.97;;;;;;;;;;6364885;22;20011;-85
2023/07/31 03:25:02;;;;;;;7.10;3.30;;;;;;;;;;6330696;22;20026;-87
2023/07/31 03:27:30;;;;;;;6.97;3.55;;;;;;;;;;6348757;22;20124;-88
2023/07/31 03:30:10;;;;;;;5.50;3.42;;;;;;;;;;6357289;22;20034;-88
2023/07/31 03:32:51;;;;;;;3.88;3.38;;;;;;;;;;6343297;22;20028;-88
2023/07/31 03:35:35;;;;;;;6.68;3.20;;;;;;;;;;6331825;22;20037;-87
2023/07/31 03:38:20;;;;;;;6.47;3.28;;;;;;;;;;6343988;22;20006;-88
2023/07/31 03:51:17;;;;;;;5.15;3.03;;;;;;;;;;6368205;22;20038;-87
2023/07/31 03:53:58;;;;;;;6.40;3.05;;;;;;;;;;6343276;22;20007;-86
2023/07/31 03:56:40;;;;;;;6.38;3.10;;;;;;;;;;6366833;22;20058;-86
2023/07/31 04:02:55;;;;;;;6.25;3.38;;;;;;;;;;6368206;22;20027;-86
2023/07/31 04:05:38;;;;;;;5.22;2.63;;;;;;;;;;6323279;22;20047;-86
2023/07/31 04:08:18;;;;;;;5.15;3.13;;;;;;;;;;6334462;22;20014;-86
2023/07/31 04:11:05;;;;;;;5.53;3.38;;;;;;;;;;6336580;22;20192;-88
2023/07/31 04:13:47;;;;;;;5.90;3.47;;;;;;;;;;6336017;22;20004;-88
2023/07/31 04:16:31;;;;;;;5.32;3.28;;;;;;;;;;6333783;22;20071;-88
2023/07/31 04:19:16;;;;;;;4.88;3.28;;;;;;;;;;6310792;22;20459;-88
2023/07/31 04:21:44;;;;;;;6.78;3.90;;;;;;;;;;6313717;22;20023;-89
2023/07/31 04:24:11;;;;;;;7.13;4.10;;;;;;;;;;6317079;22;20031;-89
2023/07/31 04:26:39;;;;;;;8.30;3.95;;;;;;;;;;6321138;22;20027;-89
2023/07/31 04:29:08;;;;;;;4.55;3.70;;;;;;;;;;6321900;22;20027;-88
2023/07/31 04:31:38;;;;;;;6.78;3.40;;;;;;;;;;6311056;22;20316;-88
2023/07/31 04:34:08;;;;;;;4.57;3.63;;;;;;;;;;6318929;22;20011;-87
2023/07/31 04:36:48;;;;;;;4.30;3.22;;;;;;;;;;6335354;22;20034;-87
2023/07/31 04:39:30;;;;;;;4.38;3.40;;;;;;;;;;6341422;22;20014;-85
2023/07/31 04:42:17;;;;;;;4.85;3.13;;;;;;;;;;6363150;22;20248;-89
2023/07/31 04:44:58;;;;;;;3.15;2.85;;;;;;;;;;6342687;22;20003;-88
2023/07/31 04:47:42;;;;;;;4.80;3.55;;;;;;;;;;6303161;22;20008;-87
2023/07/31 04:50:22;;;;;;;7.22;2.90;;;;;;;;;;6280196;22;20055;-87
2023/07/31 04:53:35;;;;;;;3.75;3.00;;;;;;;;;;6281366;22;20012;-88
2023/07/31 04:56:16;;;;;;;4.43;2.80;;;;;;;;;;6280381;22;20091;-87
2023/07/31 04:59:06;;;;;;;4.50;2.90;;;;;;;;;;6302545;22;20008;-88
2023/07/31 05:01:50;;;;;;;5.28;2.55;;;;;;;;;;6302251;22;20035;-88
2023/07/31 05:04:38;;;;;;;3.97;2.70;;;;;;;;;;6279854;22;20108;-85
2023/07/31 05:07:28;;;;;;;4.30;2.55;;;;;;;;;;6302904;22;20004;-87
2023/07/31 05:10:08;;;;;;;4.43;2.15;;;;;;;;;;6301675;22;20011;-88
2023/07/31 05:12:50;;;;;;;2.70;2.30;;;;;;;;;;6278597;22;20027;-87
2023/07/31 05:15:31;;;;;;;2.63;2.00;;;;;;;;;;6300874;22;20007;-88
2023/07/31 05:24:12;;;;;;;2.53;1.90;;;;;;;;;;6397026;22;20006;-88
2023/07/31 05:27:00;;;;;;;3.53;1.85;;;;;;;;;;6373309;22;20078;-88
2023/07/31 05:36:03;;;;;;;3.85;1.75;;;;;;;;;;6334812;22;20238;-87
2023/07/31 05:38:45;;;;;;;1.77;1.65;;;;;;;;;;6333677;22;20011;-88
2023/07/31 05:45:27;;;;;;;1.90;1.40;;;;;;;;;;6335385;22;20002;-86
2023/07/31 05:48:08;;;;;;;2.47;1.58;;;;;;;;;;6309906;22;20019;-89
2023/07/31 05:50:49;;;;;;;3.17;1.70;;;;;;;;;;6331425;22;19999;-88
2023/07/31 05:53:52;;;;;;;1.58;1.38;;;;;;;;;;6309930;22;20026;-89
2023/07/31 05:59:15;;;;;;;2.58;1.45;;;;;;;;;;6307316;22;20006;-87
2023/07/31 06:10:04;;;;;;;1.53;1.30;;;;;;;;;;6361053;22;20074;-90
2023/07/31 06:12:46;;;;;;;2.30;1.70;;;;;;;;;;6364398;22;20027;-89
2023/07/31 06:20:53;;;;;;;3.72;2.08;;;;;;;;;;6364294;22;20324;-90
2023/07/31 06:23:34;;;;;;;2.10;1.90;;;;;;;;;;6341247;22;20030;-87
2023/07/31 06:27:12;;;;;;;1.88;1.60;;;;;;;;;;6363084;22;20007;-86
2023/07/31 07:06:56;;;;;;;1.20;1.10;;;;;;;;;;6308544;22;19999;-85
2023/07/31 07:33:21;;;;;;;2.45;1.80;;;;;;;;;;6364608;22;20023;-88
2023/07/31 07:36:23;;;;;;;2.70;1.55;;;;;;;;;;6364306;22;20003;-89
2023/07/31 07:39:05;;;;;;;3.63;1.85;;;;;;;;;;6363755;22;20180;-89
2023/07/31 07:44:30;;;;;;;4.22;2.20;;;;;;;;;;6339248;22;20014;-88
2023/07/31 07:47:16;;;;;;;7.15;4.05;;;;;;;;;;6363737;22;20026;-89
2023/07/31 07:49:53;;;;;;;7.43;4.28;;;;;;;;;;6283591;22;20048;-90
2023/07/31 07:52:36;;;;;;;9.73;4.15;;;;;;;;;;6371395;22;20014;-88
2023/07/31 09:42:58;;;;;;;12.25;4.47;;;;;;;;;;6325585;22;20031;-86
2023/07/31 09:51:55;;;;;;;15.27;4.60;;;;;;;;;;6362238;22;20216;-86
2023/07/31 09:55:24;;;;;;;13.38;4.80;;;;;;;;;;6354245;22;20180;-86
2023/07/31 09:58:50;;;;;;;6.25;3.10;;;;;;;;;;6348734;22;20011;-88
2023/07/31 10:02:00;;;;;;;10.98;3.70;;;;;;;;;;6356258;22;20053;-86
2023/07/31 10:05:10;;;;;;;10.82;4.07;;;;;;;;;;6358619;22;20015;-88
2023/07/31 10:13:41;;;;;;;6.43;2.87;;;;;;;;;;6296659;22;20747;-86
2023/07/31 10:16:51;;;;;;;6.57;3.00;;;;;;;;;;6355803;22;20006;-86
2023/07/31 10:20:20;;;;;;;7.00;2.75;;;;;;;;;;6356378;22;20023;-87
2023/07/31 10:28:32;;;;;;;7.75;3.10;;;;;;;;;;6352797;22;20019;-87
2023/07/31 10:59:37;;;;;;;2.03;1.20;;;;;;;;;;6320729;22;20104;-86
2023/07/31 11:05:29;;;;;;;2.07;1.43;;;;;;;;;;6317348;22;20015;-87
2023/07/31 11:08:43;;;;;;;1.35;0.80;;;;;;;;;;6211518;22;20229;-86
2023/07/31 11:11:28;;;;;;;2.33;1.27;;;;;;;;;;6291131;22;20236;-86
2023/07/31 11:14:27;;;;;;;1.48;0.75;;;;;;;;;;6319309;22;20011;-87
2023/07/31 11:17:34;;;;;;;1.25;0.75;;;;;;;;;;6316695;22;20030;-87
2023/07/31 11:20:19;;;;;;;1.40;0.82;;;;;;;;;;6295651;22;20022;-85
2023/07/31 11:23:20;;;;;;;0.85;0.60;;;;;;;;;;6294979;22;20071;-85
2023/07/31 11:26:08;;;;;;;1.65;0.75;;;;;;;;;;6318712;22;20296;-86
2023/07/31 11:29:23;;;;;;;1.35;0.60;;;;;;;;;;6321366;22;20320;-85
2023/07/31 11:32:18;;;;;;;0.68;0.50;;;;;;;;;;6323155;22;20129;-86
2023/07/31 11:38:27;;;;;;;0.50;0.40;;;;;;;;;;6327721;22;20027;-86
2023/07/31 11:41:16;;;;;;;0.85;0.50;;;;;;;;;;6332484;22;20014;-86
2023/07/31 11:44:17;;;;;;;0.40;0.40;;;;;;;;;;6356970;22;20063;-88
2023/07/31 11:57:55;;;;;;;1.30;0.67;;;;;;;;;;6328045;22;20026;-86
2023/07/31 12:01:09;;;;;;;0.30;0.30;;;;;;;;;;6329050;22;20021;-87
2023/07/31 12:04:22;;;;;;;0.77;0.45;;;;;;;;;;6326712;22;20018;-87
2023/07/31 12:18:38;;;;;;;0.30;0.30;;;;;;;;;;6356667;22;20033;-87
2023/07/31 12:21:44;;;;;;;1.17;0.50;;;;;;;;;;6358409;22;20066;-86
2023/07/31 12:24:34;;;;;;;0.88;0.40;;;;;;;;;;6332214;22;20025;-87
2023/07/31 12:27:21;;;;;;;0.73;0.40;;;;;;;;;;6332669;22;20011;-87
2023/07/31 12:46:41;;;;;;;1.42;0.65;;;;;;;;;;6327961;22;20174;-86
2023/07/31 12:49:26;;;;;;;1.15;0.60;;;;;;;;;;6384031;22;20041;-89
2023/07/31 12:55:22;;;;;;;1.20;0.70;;;;;;;;;;6390457;22;20034;-90
2023/07/31 12:58:05;;;;;;;1.92;0.70;;;;;;;;;;6306648;22;20019;-86
2023/07/31 13:01:06;;;;;;;0.98;0.80;;;;;;;;;;6321321;22;20480;-86
2023/07/31 13:03:49;;;;;;;0.63;0.57;;;;;;;;;;6311484;22;20067;-86
2023/07/31 13:06:32;;;;;;;0.70;0.70;;;;;;;;;;6305260;22;20023;-86
2023/07/31 13:09:20;;;;;;;1.00;0.90;;;;;;;;;;6321026;22;20050;-87
2023/07/31 13:12:28;;;;;;;1.20;0.98;;;;;;;;;;6316087;22;20027;-86
2023/07/31 13:15:32;;;;;;;1.00;0.77;;;;;;;;;;6322425;22;20022;-87
2023/07/31 13:18:16;;;;;;;5.05;1.08;;;;;;;;;;6321154;22;19998;-87
2023/07/31 13:21:05;;;;;;;1.45;1.00;;;;;;;;;;6322159;22;20019;-86
2023/07/31 13:23:46;;;;;;;1.20;1.08;;;;;;;;;;6318363;22;20104;-86
2023/07/31 13:29:14;;;;;;;1.33;1.03;;;;;;;;;;6317247;22;20111;-85
2023/07/31 13:32:11;;;;;;;3.58;1.10;;;;;;;;;;6320361;22;20457;-87
2023/07/31 13:35:11;;;;;;;1.60;1.08;;;;;;;;;;6324607;22;20023;-87
2023/07/31 13:40:30;;;;;;;2.37;1.43;;;;;;;;;;6350396;22;20050;-86
2023/07/31 13:46:33;;;;;;;2.53;1.92;;;;;;;;;;6342778;22;20068;-89
2023/07/31 13:52:03;;;;;;;;;;;;;;;;;;6352482;22;20023;-86
2023/07/31 14:03:10;;;;;;;3.22;2.47;;;;;;;;;;6323982;22;20015;-86
2023/07/31 14:06:14;;;;;;;4.03;3.13;;;;;;;;;;6357252;22;20010;-85
2023/07/31 14:14:33;;;;;;;8.02;4.40;;;;;;;;;;6331830;22;20022;-85
2023/07/31 14:25:41;;;;;;;5.85;4.95;;;;;;;;;;6342586;22;20010;-86
2023/07/31 14:31:09;;;;;;;6.47;4.17;;;;;;;;;;6287897;22;20023;-86
2023/07/31 14:34:27;;;;;;;9.43;5.25;;;;;;;;;;6334457;22;20023;-86
2023/07/31 14:37:22;;;;;;;5.70;4.35;;;;;;;;;;6355376;22;20046;-86
2023/07/31 14:40:06;;;;;;;6.65;4.70;;;;;;;;;;6329196;22;20079;-86
2023/07/31 14:42:50;;;;;;;11.20;5.27;;;;;;;;;;6329813;22;20021;-86
2023/07/31 14:45:59;;;;;;;10.70;5.47;;;;;;;;;;6332058;22;20417;-87
2023/07/31 14:49:03;;;;;;;11.20;5.47;;;;;;;;;;6350719;22;20018;-86
2023/07/31 14:52:03;;;;;;;6.68;5.05;;;;;;;;;;6328544;22;20019;-87
2023/07/31 14:58:45;;;;;;;8.50;5.57;;;;;;;;;;6357170;22;20018;-85
2023/07/31 15:01:49;;;;;;;6.38;5.18;;;;;;;;;;6356993;22;20110;-89
2023/07/31 15:04:34;;;;;;;8.88;5.47;;;;;;;;;;6331762;22;20026;-86
2023/07/31 15:07:33;;;;;;;9.43;5.80;;;;;;;;;;6360189;22;20015;-86
2023/07/31 15:13:57;;;;;;;11.68;6.28;;;;;;;;;;6331817;22;20022;-86
2023/07/31 15:33:56;;;;;;;9.75;6.65;;;;;;;;;;6270058;22;20049;-87
2023/07/31 15:36:37;;;;;;;9.82;6.60;;;;;;;;;;6302847;22;20024;-90
2023/07/31 15:39:19;;;;;;;8.30;5.65;;;;;;;;;;6279844;22;20042;-89
2023/07/31 15:42:02;;;;;;;10.57;6.53;;;;;;;;;;6279825;22;20000;-88
2023/07/31 15:50:10;;;;;;;8.03;5.80;;;;;;;;;;6309740;22;19999;-90
2023/07/31 15:55:59;;;;;;;8.70;6.87;;;;;;;;;;6292890;22;20026;-89
2023/07/31 15:58:42;;;;;;;9.05;6.57;;;;;;;;;;6366088;22;20032;-89
2023/07/31 16:21:00;;;;;;;6.30;4.40;;;;;;;;;;6249753;22;20015;-89
2023/07/31 16:33:09;;;;;;;4.78;3.10;;;;;;;;;;6357801;22;20002;-88
2023/07/31 16:41:27;;;;;;;4.00;2.78;;;;;;;;;;6358394;22;20014;-85
2023/07/31 16:44:12;;;;;;;6.60;2.90;;;;;;;;;;6355451;22;20019;-87
2023/07/31 16:49:47;;;;;;;4.90;2.70;;;;;;;;;;6353857;22;20007;-86
2023/07/31 16:52:49;;;;;;;4.55;3.28;;;;;;;;;;6352840;22;20037;-87
2023/07/31 16:55:41;;;;;;;3.47;3.08;;;;;;;;;;6341635;22;20011;-86
2023/07/31 16:58:38;;;;;;;3.75;3.17;;;;;;;;;;6323412;22;20027;-87
2023/07/31 17:01:33;;;;;;;4.13;3.33;;;;;;;;;;6321304;22;20027;-87
2023/07/31 17:04:14;;;;;;;3.88;3.03;;;;;;;;;;6297606;22;20037;-85
2023/07/31 17:07:03;;;;;;;6.78;4.07;;;;;;;;;;6297381;22;20019;-87
2023/07/31 17:09:44;;;;;;;5.57;4.10;;;;;;;;;;6298205;22;20034;-86
2023/07/31 17:12:27;;;;;;;5.80;3.90;;;;;;;;;;6322685;22;20042;-86
2023/07/31 17:18:33;;;;;;;7.07;3.33;;;;;;;;;;6324025;22;20174;-85
2023/07/31 17:21:17;;;;;;;5.93;4.07;;;;;;;;;;6321412;22;20027;-87
2023/07/31 17:24:02;;;;;;;6.35;3.95;;;;;;;;;;6354008;22;20019;-86
2023/07/31 17:26:50;;;;;;;6.70;3.72;;;;;;;;;;6354395;22;20010;-89
2023/07/31 17:29:31;;;;;;;;;;;;;;;;;;6333093;22;20011;-88
2023/07/31 17:32:31;;;;;;;6.18;3.97;;;;;;;;;;6361039;22;19933;-89
2023/07/31 17:35:12;;;;;;;8.00;4.75;;;;;;;;;;6333465;22;19998;-89
2023/07/31 17:38:04;;;;;;;6.10;3.90;;;;;;;;;;6357100;22;20070;-89
2023/07/31 17:40:45;;;;;;;6.30;4.88;;;;;;;;;;6339193;22;20011;-89
2023/07/31 17:43:38;;;;;;;8.18;5.13;;;;;;;;;;6363457;22;20187;-89
2023/07/31 17:46:21;;;;;;;8.10;5.20;;;;;;;;;;6363987;22;20018;-86
2023/07/31 17:51:57;;;;;;;8.40;5.93;;;;;;;;;;6310596;22;20002;-87
2023/07/31 17:54:40;;;;;;;10.45;5.30;;;;;;;;;;6328850;22;20042;-87
2023/07/31 18:02:37;;;;;;;11.48;6.53;;;;;;;;;;6327674;22;20021;-88
2023/07/31 18:10:54;;;;;;;7.97;5.60;;;;;;;;;;6337800;22;20007;-88
2023/07/31 18:34:12;;;;;;;6.88;4.38;;;;;;;;;;6300276;22;21158;-89
2023/07/31 18:36:55;;;;;;;8.57;4.40;;;;;;;;;;6272858;22;20014;-88
2023/07/31 18:39:40;;;;;;;6.57;3.75;;;;;;;;;;6294929;22;20076;-87
2023/07/31 18:42:24;;;;;;;7.00;3.58;;;;;;;;;;6334423;22;20007;-90
2023/07/31 18:45:14;;;;;;;4.97;3.10;;;;;;;;;;6334553;22;20106;-89
2023/07/31 18:48:02;;;;;;;4.22;2.67;;;;;;;;;;6334494;22;20034;-91
2023/07/31 18:50:43;;;;;;;8.38;2.33;;;;;;;;;;6329249;22;20011;-91
2023/07/31 18:53:19;;;;;;;2.60;1.95;;;;;;;;;;6321730;22;20087;-90
2023/07/31 18:58:35;;;;;;;2.92;1.83;;;;;;;;;;6290261;22;20103;-86
2023/07/31 19:12:46;;;;;;;3.03;1.80;;;;;;;;;;6323484;22;20022;-87
2023/07/31 19:40:17;;;;;;;6.28;3.25;;;;;;;;;;6328470;22;20015;-87
2023/07/31 19:43:25;;;;;;;8.30;3.97;;;;;;;;;;6347194;22;20084;-87
2023/07/31 19:54:33;;;;;;;5.68;3.42;;;;;;;;;;6350280;22;20013;-86
2023/07/31 20:03:23;;;;;;;6.53;4.13;;;;;;;;;;6356287;22;20022;-86
2023/07/31 20:06:24;;;;;;;7.15;5.35;;;;;;;;;;6341501;22;20068;-87
2023/07/31 20:09:43;;;;;;;9.15;4.82;;;;;;;;;;6363324;22;20007;-87
2023/07/31 20:12:26;;;;;;;7.20;4.95;;;;;;;;;;6339572;22;20014;-87
2023/07/31 20:15:42;;;;;;;8.30;5.45;;;;;;;;;;6339106;22;20009;-87
2023/07/31 20:18:31;;;;;;;9.52;5.55;;;;;;;;;;6363740;22;20013;-87
2023/07/31 20:21:45;;;;;;;7.25;5.78;;;;;;;;;;6338994;22;20036;-86
2023/07/31 20:24:27;;;;;;;8.98;5.85;;;;;;;;;;6348423;22;20030;-86
2023/07/31 20:26:54;;;;;;;8.60;6.13;;;;;;;;;;6341033;22;20022;-86
2023/07/31 20:29:26;;;;;;;10.07;6.03;;;;;;;;;;6318613;22;20023;-86
2023/07/31 20:31:59;;;;;;;8.48;6.50;;;;;;;;;;6316498;22;20033;-87
2023/07/31 20:34:29;;;;;;;7.72;6.22;;;;;;;;;;6313973;22;20110;-86
2023/07/31 20:36:56;;;;;;;10.35;6.18;;;;;;;;;;6315097;22;20027;-86
2023/07/31 20:39:24;;;;;;;10.27;5.97;;;;;;;;;;6315627;22;20084;-86
2023/07/31 20:41:52;;;;;;;8.65;6.63;;;;;;;;;;6321578;22;20010;-86
2023/07/31 20:44:23;;;;;;;8.82;6.60;;;;;;;;;;6321419;22;20019;-86
2023/07/31 20:46:51;;;;;;;8.63;6.43;;;;;;;;;;6315334;22;20075;-86
2023/07/31 20:49:19;;;;;;;8.23;6.45;;;;;;;;;;6326394;22;20196;-87
2023/07/31 20:51:50;;;;;;;9.23;5.65;;;;;;;;;;6324620;22;20076;-86
2023/07/31 20:54:17;;;;;;;10.25;6.00;;;;;;;;;;6348671;22;20041;-86
2023/07/31 20:56:44;;;;;;;9.57;6.13;;;;;;;;;;6318002;22;20026;-86
2023/07/31 20:59:20;;;;;;;8.02;5.60;;;;;;;;;;6317612;22;20022;-86
2023/07/31 21:01:47;;;;;;;7.97;5.57;;;;;;;;;;6315613;22;20033;-87
2023/07/31 21:04:15;;;;;;;8.32;5.72;;;;;;;;;;6319894;22;20043;-86
2023/07/31 21:06:42;;;;;;;8.23;6.22;;;;;;;;;;6326441;22;20111;-87
2023/07/31 21:09:10;;;;;;;6.97;5.60;;;;;;;;;;6323820;22;20359;-86
2023/07/31 21:11:39;;;;;;;8.52;5.10;;;;;;;;;;6314854;22;20023;-87
2023/07/31 21:14:06;;;;;;;5.80;4.82;;;;;;;;;;6342110;22;20099;-86
2023/07/31 21:16:33;;;;;;;6.82;4.90;;;;;;;;;;6343003;22;20393;-86
2023/07/31 21:19:04;;;;;;;6.40;4.65;;;;;;;;;;6313649;22;20033;-86
2023/07/31 21:21:35;;;;;;;4.65;3.83;;;;;;;;;;6339335;22;20085;-86
2023/07/31 21:24:05;;;;;;;9.13;3.53;;;;;;;;;;6340277;22;20023;-86
2023/07/31 21:26:31;;;;;;;4.22;3.65;;;;;;;;;;6340739;22;20029;-86
2023/07/31 21:29:00;;;;;;;5.28;3.65;;;;;;;;;;6340097;22;20053;-86
2023/07/31 21:31:27;;;;;;;4.00;2.88;;;;;;;;;;6313126;22;20022;-86
2023/07/31 21:33:57;;;;;;;5.13;2.80;;;;;;;;;;6314521;22;20361;-86
2023/07/31 21:36:24;;;;;;;2.78;2.30;;;;;;;;;;6315371;22;20354;-86
2023/07/31 21:38:51;;;;;;;5.97;2.20;;;;;;;;;;6313499;22;20072;-86
2023/07/31 21:41:21;;;;;;;2.08;1.77;;;;;;;;;;6343514;22;20041;-86
2023/07/31 21:43:52;;;;;;;4.82;2.85;;;;;;;;;;6317664;22;20267;-86
2023/07/31 21:46:19;;;;;;;3.40;1.80;;;;;;;;;;6316315;22;20023;-86
2023/07/31 21:48:46;;;;;;;2.45;1.80;;;;;;;;;;6317165;22;20018;-86
2023/07/31 21:51:15;;;;;;;2.50;1.90;;;;;;;;;;6319336;22;20027;-86
2023/07/31 21:53:43;;;;;;;2.83;1.95;;;;;;;;;;6321122;22;20030;-86
2023/07/31 21:56:10;;;;;;;2.95;1.83;;;;;;;;;;6344130;22;20213;-86
2023/07/31 21:58:39;;;;;;;4.35;1.65;;;;;;;;;;6344160;22;20022;-86
2023/07/31 22:01:06;;;;;;;2.75;1.80;;;;;;;;;;6347228;22;20035;-86
2023/07/31 22:03:33;;;;;;;3.80;2.03;;;;;;;;;;6321848;22;20037;-86
2023/07/31 22:06:00;;;;;;;2.15;1.90;;;;;;;;;;6373780;22;20026;-86
2023/07/31 22:08:27;;;;;;;4.15;1.98;;;;;;;;;;6346713;22;20023;-86
2023/07/31 22:10:54;;;;;;;2.90;2.10;;;;;;;;;;6374697;22;20072;-86
2023/07/31 22:13:21;;;;;;;3.95;2.30;;;;;;;;;;6347237;22;20045;-86
2023/07/31 22:15:55;;;;;;;4.53;2.35;;;;;;;;;;6345653;22;20041;-86
2023/07/31 22:18:28;;;;;;;6.57;2.20;;;;;;;;;;6372519;22;20022;-86
2023/07/31 22:20:55;;;;;;;3.05;1.73;;;;;;;;;;6371832;22;20026;-86
2023/07/31 22:23:22;;;;;;;3.70;1.70;;;;;;;;;;6345956;22;20022;-85
2023/07/31 22:25:52;;;;;;;2.05;1.63;;;;;;;;;;6352948;22;20022;-86
2023/07/31 22:28:19;;;;;;;2.92;1.83;;;;;;;;;;6346587;22;20019;-86
2023/07/31 22:30:47;;;;;;;2.33;1.98;;;;;;;;;;6347373;22;20022;-86
2023/07/31 22:33:17;;;;;;;2.28;1.65;;;;;;;;;;6346292;22;20416;-85
2023/07/31 22:35:44;;;;;;;2.88;1.67;;;;;;;;;;6345886;22;20026;-86
2023/07/31 22:38:13;;;;;;;3.45;1.73;;;;;;;;;;6372954;22;20026;-86
2023/07/31 22:40:43;;;;;;;2.40;1.73;;;;;;;;;;6375023;22;20022;-86
2023/07/31 22:43:11;;;;;;;1.95;1.83;;;;;;;;;;6347085;22;20406;-86
2023/07/31 22:45:38;;;;;;;3.65;2.75;;;;;;;;;;6375899;22;20083;-86
2023/07/31 22:48:05;;;;;;;3.83;2.40;;;;;;;;;;6374841;22;20266;-86
2023/07/31 22:50:32;;;;;;;4.45;3.17;;;;;;;;;;6348968;22;20084;-86
2023/07/31 22:52:59;;;;;;;4.70;3.13;;;;;;;;;;6374438;22;20034;-85
2023/07/31 22:55:31;;;;;;;3.80;3.00;;;;;;;;;;6350185;22;20023;-85
2023/07/31 22:58:00;;;;;;;6.25;3.05;;;;;;;;;;6376525;22;20018;-85
2023/07/31 23:00:28;;;;;;;4.85;3.10;;;;;;;;;;6376293;22;20010;-86
2023/07/31 23:02:56;;;;;;;6.10;3.53;;;;;;;;;;6349929;22;20080;-86
2023/07/31 23:05:23;;;;;;;4.70;3.65;;;;;;;;;;6374412;22;20046;-86
2023/07/31 23:07:50;;;;;;;8.10;3.92;;;;;;;;;;6347966;22;20019;-86
2023/07/31 23:10:17;;;;;;;5.80;3.95;;;;;;;;;;6349027;22;20030;-86
2023/07/31 23:12:45;;;;;;;5.88;4.22;;;;;;;;;;6357466;22;20029;-86
2023/07/31 23:15:13;;;;;;;5.18;4.15;;;;;;;;;;6350512;22;20045;-86
2023/07/31 23:17:40;;;;;;;6.45;4.60;;;;;;;;;;6356428;22;20022;-86
2023/07/31 23:20:07;;;;;;;5.68;4.30;;;;;;;;;;6358749;22;20091;-86
2023/07/31 23:32:43;;;;;;;10.07;5.30;;;;;;;;;;6377621;22;20017;-86
2023/07/31 23:35:10;;;;;;;6.22;4.90;;;;;;;;;;6377342;22;20041;-86
2023/07/31 23:37:39;;;;;;;8.05;5.22;;;;;;;;;;6350370;22;20264;-86
2023/07/31 23:40:07;;;;;;;6.80;5.03;;;;;;;;;;6377451;22;20018;-86
2023/07/31 23:42:34;;;;;;;7.88;5.75;;;;;;;;;;6351189;22;20022;-86
2023/07/31 23:45:00;;;;;;;10.13;5.60;;;;;;;;;;6380345;22;20032;-86
2023/07/31 23:47:37;;;;;;;7.55;5.65;;;;;;;;;;6358618;22;20038;-86
2023/07/31 23:50:14;;;;;;;8.25;6.20;;;;;;;;;;6380435;22;20018;-86
